createdAt,value
2022-10-27T00:00:59.836Z,82.06
2022-10-27T00:04:05.689Z,82.01
2022-10-27T00:07:12.011Z,81.72
2022-10-27T00:10:21.926Z,82.00
2022-10-27T00:13:32.011Z,82.52
2022-10-27T00:16:37.760Z,83.29
2022-10-27T00:19:43.341Z,82.79
2022-10-27T00:22:49.193Z,83.58
2022-10-27T00:25:59.025Z,83.65
2022-10-27T00:29:07.206Z,83.04
2022-10-27T00:32:12.850Z,83.96
2022-10-27T00:35:18.704Z,83.92
2022-10-27T00:38:26.020Z,84.58
2022-10-27T00:41:35.331Z,84.10
2022-10-27T00:44:47.344Z,84.61
2022-10-27T00:47:53.810Z,84.22
2022-10-27T00:51:03.010Z,84.65
2022-10-27T00:54:09.369Z,84.62
2022-10-27T00:57:16.599Z,85.08
2022-10-27T01:00:25.353Z,85.22
2022-10-27T01:03:31.752Z,85.42
2022-10-27T01:06:39.486Z,86.30
2022-10-27T01:09:46.785Z,86.41
2022-10-27T01:12:54.019Z,85.98
2022-10-27T01:16:25.227Z,85.56
2022-10-27T01:20:12.512Z,84.92
2022-10-27T01:23:36.664Z,84.33
2022-10-27T01:26:54.998Z,83.55
2022-10-27T01:30:14.840Z,83.50
2022-10-27T01:33:36.092Z,82.94
2022-10-27T01:36:52.920Z,83.05
2022-10-27T01:40:09.596Z,83.79
2022-10-27T01:43:23.758Z,83.61
2022-10-27T01:46:29.685Z,84.55
2022-10-27T01:49:45.578Z,83.91
2022-10-27T01:52:54.421Z,83.24
2022-10-27T01:56:22.720Z,83.79
2022-10-27T02:00:04.453Z,84.13
2022-10-27T02:03:24.205Z,84.84
2022-10-27T02:06:41.540Z,84.13
2022-10-27T02:09:57.600Z,84.11
2022-10-27T02:13:06.390Z,84.24
2022-10-27T02:16:20.114Z,84.80
2022-10-27T02:19:32.341Z,84.53
2022-10-27T02:22:46.270Z,84.74
2022-10-27T02:26:02.740Z,84.28
2022-10-27T02:29:18.142Z,84.62
2022-10-27T02:32:29.010Z,84.70
2022-10-27T02:35:44.918Z,85.20
2022-10-27T02:38:56.120Z,84.32
2022-10-27T02:42:01.733Z,84.06
2022-10-27T02:45:08.380Z,84.73
2022-10-27T02:48:13.925Z,84.13
2022-10-27T02:51:19.580Z,83.59
2022-10-27T02:54:27.760Z,83.85
2022-10-27T02:57:33.333Z,82.92
2022-10-27T03:00:39.045Z,83.40
2022-10-27T03:03:46.074Z,83.35
2022-10-27T03:06:51.694Z,83.58
2022-10-27T03:09:59.976Z,83.58
2022-10-27T03:13:08.895Z,83.01
2022-10-27T03:16:14.546Z,83.80
2022-10-27T03:19:20.328Z,83.28
2022-10-27T03:22:29.720Z,82.49
2022-10-27T03:25:47.401Z,82.06
2022-10-27T03:28:53.898Z,82.54
2022-10-27T03:31:59.503Z,82.31
2022-10-27T03:35:05.124Z,82.00
2022-10-27T03:38:13.223Z,82.07
2022-10-27T03:41:21.407Z,81.95
2022-10-27T03:44:27.048Z,81.86
2022-10-27T03:47:32.649Z,82.82
2022-10-27T03:50:41.032Z,82.39
2022-10-27T03:53:46.596Z,82.17
2022-10-27T03:56:54.954Z,81.86
2022-10-27T04:00:00.504Z,82.05
2022-10-27T04:03:19.396Z,81.40
2022-10-27T04:06:24.931Z,82.24
2022-10-27T04:09:30.520Z,81.63
2022-10-27T04:12:41.110Z,81.73
2022-10-27T04:15:46.696Z,81.31
2022-10-27T04:18:52.705Z,80.20
2022-10-27T04:21:58.402Z,80.27
2022-10-27T04:25:05.763Z,80.09
2022-10-27T04:28:15.535Z,80.10
2022-10-27T04:31:21.225Z,80.75
2022-10-27T04:34:26.874Z,80.67
2022-10-27T04:37:32.543Z,80.32
2022-10-27T04:40:38.158Z,80.07
2022-10-27T04:43:46.606Z,80.05
2022-10-27T04:46:52.242Z,80.28
2022-10-27T04:50:10.113Z,81.33
2022-10-27T04:53:22.640Z,81.62
2022-10-27T04:56:29.180Z,82.49
2022-10-27T04:59:37.369Z,82.90
2022-10-27T05:02:43.045Z,83.54
2022-10-27T05:05:48.957Z,83.37
2022-10-27T05:12:01.072Z,85.26
2022-10-27T05:15:11.447Z,85.70
2022-10-27T05:18:20.707Z,86.51
2022-10-27T05:21:26.303Z,85.36
2022-10-27T05:24:32.010Z,85.19
2022-10-27T05:27:38.477Z,85.77
2022-10-27T05:30:46.747Z,85.17
2022-10-27T05:33:52.404Z,84.95
2022-10-27T05:36:57.997Z,85.29
2022-10-27T05:40:03.922Z,84.64
2022-10-27T05:43:09.653Z,84.35
2022-10-27T05:46:17.869Z,84.17
2022-10-27T05:49:23.475Z,84.88
2022-10-27T05:52:29.102Z,84.48
2022-10-27T05:55:36.272Z,84.70
2022-10-27T05:58:41.877Z,83.91
2022-10-27T06:01:50.230Z,83.87
2022-10-27T06:04:55.914Z,83.36
2022-10-27T06:08:01.815Z,83.93
2022-10-27T06:11:07.926Z,83.55
2022-10-27T06:14:15.902Z,84.36
2022-10-27T06:17:24.091Z,83.19
2022-10-27T06:20:29.796Z,82.79
2022-10-27T06:23:38.783Z,82.55
2022-10-27T06:26:44.327Z,82.90
2022-10-27T06:29:50.269Z,82.99
2022-10-27T06:32:58.469Z,82.23
2022-10-27T06:36:04.093Z,82.05
2022-10-27T06:39:09.850Z,81.85
2022-10-27T06:42:15.693Z,81.68
2022-10-27T06:45:29.371Z,80.47
2022-10-27T06:48:37.509Z,79.47
2022-10-27T06:51:43.215Z,79.51
2022-10-27T06:54:51.696Z,78.27
2022-10-27T06:58:00.706Z,77.38
2022-10-27T07:01:06.371Z,77.09
2022-10-27T07:04:14.727Z,76.33
2022-10-27T07:07:20.374Z,75.15
2022-10-27T07:10:26.112Z,73.73
2022-10-27T07:13:31.847Z,73.97
2022-10-27T07:16:37.549Z,73.21
2022-10-27T07:19:45.775Z,72.88
2022-10-27T07:22:51.427Z,71.35
2022-10-27T07:25:57.098Z,68.68
2022-10-27T07:29:02.804Z,67.82
2022-10-27T07:32:10.549Z,65.99
2022-10-27T07:35:19.606Z,63.80
2022-10-27T07:38:25.233Z,63.26
2022-10-27T07:41:34.150Z,62.77
2022-10-27T07:44:39.744Z,61.43
2022-10-27T07:47:49.650Z,60.52
2022-10-27T07:50:58.410Z,60.50
2022-10-27T07:54:03.994Z,59.75
2022-10-27T07:57:09.615Z,59.67
2022-10-27T08:00:19.031Z,58.25
2022-10-27T08:03:30.078Z,57.02
2022-10-27T08:06:38.770Z,55.63
2022-10-27T08:09:44.630Z,55.38
2022-10-27T08:12:50.173Z,56.37
2022-10-27T08:19:21.387Z,55.75
2022-10-27T08:22:29.739Z,55.56
2022-10-27T08:25:36.478Z,54.93
2022-10-27T08:28:42.093Z,53.43
2022-10-27T08:31:47.671Z,52.29
2022-10-27T08:34:53.256Z,51.59
2022-10-27T08:38:07.773Z,52.85
2022-10-27T08:41:28.791Z,53.86
2022-10-27T08:44:43.670Z,53.99
2022-10-27T08:47:51.504Z,53.28
2022-10-27T08:50:57.826Z,51.63
2022-10-27T08:54:10.604Z,49.82
2022-10-27T08:57:27.976Z,49.94
2022-10-27T09:00:47.434Z,50.01
2022-10-27T09:04:16.266Z,50.09
2022-10-27T09:07:35.749Z,47.18
2022-10-27T09:10:58.344Z,44.98
2022-10-27T09:14:31.921Z,45.02
2022-10-27T09:17:47.686Z,45.97
2022-10-27T09:21:06.707Z,43.75
2022-10-27T09:24:20.322Z,42.67
2022-10-27T09:27:29.086Z,43.11
2022-10-27T09:30:42.798Z,44.47
2022-10-27T09:34:00.009Z,46.02
2022-10-27T09:37:05.756Z,47.64
2022-10-27T09:40:17.447Z,47.21
2022-10-27T09:43:27.230Z,52.86
2022-10-27T09:46:35.202Z,52.84
2022-10-27T09:49:47.187Z,54.89
2022-10-27T09:52:53.659Z,52.68
2022-10-27T09:55:59.505Z,51.44
2022-10-27T09:59:10.470Z,51.99
2022-10-27T10:02:29.530Z,51.20
2022-10-27T10:05:39.618Z,49.29
2022-10-27T10:08:45.165Z,46.82
2022-10-27T10:11:50.731Z,45.16
2022-10-27T10:15:22.626Z,43.88
2022-10-27T10:18:33.139Z,44.34
2022-10-27T10:21:53.407Z,42.65
2022-10-27T10:25:14.581Z,42.35
2022-10-27T10:28:37.151Z,41.62
2022-10-27T10:31:45.638Z,38.85
2022-10-27T10:34:53.468Z,39.33
2022-10-27T10:38:04.218Z,38.54
2022-10-27T10:41:17.187Z,39.66
2022-10-27T10:44:23.091Z,37.53
2022-10-27T10:47:33.930Z,37.23
2022-10-27T10:50:51.149Z,37.27
2022-10-27T10:54:04.266Z,37.85
2022-10-27T10:57:32.059Z,36.72
2022-10-27T11:00:38.964Z,37.22
2022-10-27T11:03:55.381Z,38.54
2022-10-27T11:07:09.623Z,37.04
2022-10-27T11:10:22.336Z,37.60
2022-10-27T11:13:41.550Z,37.90
2022-10-27T11:16:58.823Z,38.22
2022-10-27T11:20:25.214Z,38.43
2022-10-27T11:23:46.605Z,38.55
2022-10-27T11:27:07.896Z,39.05
2022-10-27T11:30:28.153Z,39.80
2022-10-27T11:33:47.822Z,39.43
2022-10-27T11:37:05.052Z,38.32
2022-10-27T11:40:23.424Z,38.82
2022-10-27T11:43:42.017Z,40.78
2022-10-27T11:47:03.204Z,39.46
2022-10-27T11:50:16.605Z,40.72
2022-10-27T11:53:25.405Z,39.97
2022-10-27T11:56:53.161Z,40.50
2022-10-27T12:00:17.375Z,40.84
2022-10-27T12:03:54.678Z,39.77
2022-10-27T12:07:16.995Z,38.42
2022-10-27T12:10:39.338Z,38.95
2022-10-27T12:14:02.259Z,39.59
2022-10-27T12:17:20.198Z,40.52
2022-10-27T12:20:41.133Z,40.56
2022-10-27T12:23:59.372Z,40.83
2022-10-27T12:27:19.073Z,42.04
2022-10-27T12:30:31.921Z,42.24
2022-10-27T12:33:52.271Z,42.11
2022-10-27T12:37:13.567Z,43.07
2022-10-27T12:40:34.092Z,43.59
2022-10-27T12:43:59.149Z,43.43
2022-10-27T12:47:32.111Z,42.48
2022-10-27T12:50:56.466Z,42.30
2022-10-27T12:54:30.731Z,42.58
2022-10-27T12:57:54.660Z,43.02
2022-10-27T13:01:28.964Z,42.55
2022-10-27T13:05:07.328Z,43.94
2022-10-27T13:09:14.882Z,44.42
2022-10-27T13:12:49.187Z,44.46
2022-10-27T13:16:12.518Z,45.68
2022-10-27T13:23:26.234Z,48.05
2022-10-27T13:26:41.501Z,49.02
2022-10-27T13:29:56.979Z,49.57
2022-10-27T13:33:08.350Z,50.82
2022-10-27T13:36:23.023Z,51.40
2022-10-27T13:39:49.938Z,52.11
2022-10-27T13:42:58.402Z,52.63
2022-10-27T13:46:04.811Z,53.07
2022-10-27T13:49:32.955Z,53.11
2022-10-27T13:52:41.120Z,53.02
2022-10-27T13:55:48.643Z,53.87
2022-10-27T13:59:08.734Z,53.82
2022-10-27T14:02:39.744Z,54.09
2022-10-27T14:05:51.117Z,54.37
2022-10-27T14:09:03.943Z,53.82
2022-10-27T14:12:27.324Z,53.93
2022-10-27T14:15:37.685Z,54.91
2022-10-27T14:18:45.859Z,54.76
2022-10-27T14:21:55.279Z,55.00
2022-10-27T14:25:18.719Z,54.37
2022-10-27T14:28:27.428Z,54.74
2022-10-27T14:31:35.925Z,55.33
2022-10-27T14:34:41.537Z,55.53
2022-10-27T14:37:47.238Z,55.51
2022-10-27T14:40:55.625Z,55.45
2022-10-27T14:44:06.155Z,55.92
2022-10-27T14:47:19.331Z,55.75
2022-10-27T14:50:35.039Z,55.96
2022-10-27T14:53:41.406Z,55.71
2022-10-27T14:56:49.980Z,56.31
2022-10-27T14:59:55.610Z,56.57
2022-10-27T15:03:06.251Z,56.66
2022-10-27T15:06:22.140Z,56.72
2022-10-27T15:09:36.559Z,56.71
2022-10-27T15:12:50.163Z,57.13
2022-10-27T15:16:04.505Z,57.21
2022-10-27T15:19:19.007Z,58.02
2022-10-27T15:22:26.562Z,58.22
2022-10-27T15:25:35.580Z,58.06
2022-10-27T15:28:46.148Z,59.03
2022-10-27T15:32:01.731Z,58.99
2022-10-27T15:35:31.772Z,59.98
2022-10-27T15:38:37.739Z,60.97
2022-10-27T15:41:54.338Z,61.59
2022-10-27T15:45:46.237Z,62.16
2022-10-27T15:49:16.324Z,62.48
2022-10-27T15:52:29.439Z,62.86
2022-10-27T15:55:40.499Z,63.96
2022-10-27T15:59:05.925Z,64.09
2022-10-27T16:02:39.964Z,64.76
2022-10-27T16:05:49.742Z,65.27
2022-10-27T16:08:58.624Z,65.95
2022-10-27T16:12:04.369Z,66.41
2022-10-27T16:15:22.721Z,66.81
2022-10-27T16:18:37.469Z,66.78
2022-10-27T16:21:48.924Z,67.56
2022-10-27T16:24:54.783Z,67.64
2022-10-27T16:28:05.547Z,67.92
2022-10-27T16:31:25.480Z,67.70
2022-10-27T16:34:35.503Z,68.22
2022-10-27T16:37:41.124Z,68.50
2022-10-27T16:40:55.011Z,70.14
2022-10-27T16:44:03.339Z,70.33
2022-10-27T16:47:10.032Z,70.01
2022-10-27T16:50:18.511Z,69.88
2022-10-27T16:53:24.619Z,70.40
2022-10-27T16:56:30.184Z,70.33
2022-10-27T16:59:36.421Z,70.25
2022-10-27T17:02:43.094Z,70.11
2022-10-27T17:05:53.001Z,71.00
2022-10-27T17:08:59.601Z,71.15
2022-10-27T17:12:24.581Z,71.22
2022-10-27T17:15:30.270Z,71.06
2022-10-27T17:18:36.143Z,70.29
2022-10-27T17:21:57.494Z,69.64
2022-10-27T17:25:03.789Z,69.18
2022-10-27T17:28:09.459Z,70.03
2022-10-27T17:31:20.828Z,70.33
2022-10-27T17:34:36.611Z,70.85
2022-10-27T17:37:45.030Z,71.49
2022-10-27T17:40:54.529Z,71.72
2022-10-27T17:44:00.231Z,71.33
2022-10-27T17:47:05.853Z,71.28
2022-10-27T17:50:12.428Z,72.21
2022-10-27T17:53:20.874Z,73.25
2022-10-27T17:56:29.887Z,73.19
2022-10-27T17:59:40.404Z,72.86
2022-10-27T18:02:46.013Z,72.73
2022-10-27T18:05:51.618Z,72.38
2022-10-27T18:09:10.332Z,72.33
2022-10-27T18:12:15.901Z,72.68
2022-10-27T18:15:35.579Z,73.08
2022-10-27T18:18:42.453Z,73.77
2022-10-27T18:21:51.366Z,73.30
2022-10-27T18:24:59.643Z,73.53
2022-10-27T18:28:08.279Z,73.62
2022-10-27T18:31:16.567Z,73.13
2022-10-27T18:34:26.207Z,73.16
2022-10-27T18:37:31.851Z,72.48
2022-10-27T18:40:40.176Z,71.89
2022-10-27T18:43:50.003Z,71.89
2022-10-27T18:47:05.506Z,71.70
2022-10-27T18:50:12.537Z,72.48
2022-10-27T18:53:18.084Z,74.02
2022-10-27T18:56:31.896Z,74.83
2022-10-27T18:59:41.921Z,74.46
2022-10-27T19:02:53.326Z,74.59
2022-10-27T19:06:15.104Z,74.20
2022-10-27T19:09:22.173Z,74.37
2022-10-27T19:12:31.543Z,74.24
2022-10-27T19:15:37.837Z,74.61
2022-10-27T19:18:44.104Z,74.39
2022-10-27T19:21:49.666Z,74.35
2022-10-27T19:24:55.325Z,74.13
2022-10-27T19:28:03.481Z,73.54
2022-10-27T19:31:14.597Z,73.50
2022-10-27T19:34:23.099Z,73.86
2022-10-27T19:37:28.985Z,73.79
2022-10-27T19:40:39.754Z,73.70
2022-10-27T19:43:51.203Z,73.81
2022-10-27T19:46:57.274Z,74.09
2022-10-27T19:50:09.581Z,73.92
2022-10-27T19:53:35.762Z,74.22
2022-10-27T19:56:46.870Z,74.83
2022-10-27T19:59:55.114Z,75.53
2022-10-27T20:03:01.695Z,75.50
2022-10-27T20:06:09.351Z,76.01
2022-10-27T20:09:24.761Z,76.31
2022-10-27T20:12:30.519Z,76.08
2022-10-27T20:15:38.738Z,75.91
2022-10-27T20:18:54.143Z,76.42
2022-10-27T20:22:00.335Z,75.99
2022-10-27T20:25:06.137Z,76.76
2022-10-27T20:28:11.872Z,76.92
2022-10-27T20:31:20.143Z,77.59
2022-10-27T20:34:25.843Z,77.95
2022-10-27T20:37:36.670Z,78.78
2022-10-27T20:40:49.695Z,78.39
2022-10-27T20:43:57.470Z,78.98
2022-10-27T20:47:05.815Z,79.49
2022-10-27T20:50:12.950Z,79.27
2022-10-27T20:53:18.656Z,80.00
2022-10-27T20:56:26.789Z,80.73
2022-10-27T20:59:32.415Z,80.13
2022-10-27T21:02:51.439Z,79.99
2022-10-27T21:05:59.851Z,80.35
2022-10-27T21:09:15.751Z,80.49
2022-10-27T21:12:21.416Z,79.90
2022-10-27T21:15:27.224Z,80.22
2022-10-27T21:18:35.569Z,80.14
2022-10-27T21:21:44.031Z,79.92
2022-10-27T21:24:49.674Z,79.63
2022-10-27T21:27:55.684Z,79.44
2022-10-27T21:31:05.669Z,79.44
2022-10-27T21:34:14.124Z,79.50
2022-10-27T21:37:19.797Z,80.08
2022-10-27T21:40:26.627Z,80.50
2022-10-27T21:43:40.190Z,80.85
2022-10-27T21:46:45.915Z,81.51
2022-10-27T21:49:54.544Z,81.43
2022-10-27T21:53:00.120Z,82.39
2022-10-27T21:56:09.634Z,83.04
2022-10-27T21:59:15.429Z,82.98
2022-10-27T22:02:21.173Z,83.64
2022-10-27T22:05:29.373Z,84.22
2022-10-27T22:08:37.860Z,84.10
2022-10-27T22:11:46.515Z,83.75
2022-10-27T22:14:55.143Z,83.61
2022-10-27T22:18:15.634Z,83.08
2022-10-27T22:21:24.928Z,83.90
2022-10-27T22:24:30.555Z,83.91
2022-10-27T22:27:41.312Z,83.30
2022-10-27T22:30:46.843Z,83.84
2022-10-27T22:33:56.322Z,84.99
2022-10-27T22:37:04.623Z,86.04
2022-10-27T22:40:12.731Z,86.55
2022-10-27T22:43:18.369Z,86.76
2022-10-27T22:46:27.633Z,87.53
2022-10-27T22:49:33.703Z,87.79
2022-10-27T22:52:41.981Z,88.47
2022-10-27T22:55:47.612Z,88.32
2022-10-27T22:58:56.070Z,86.88
2022-10-27T23:02:01.811Z,86.37
2022-10-27T23:05:08.956Z,87.16
2022-10-27T23:08:17.268Z,87.39
2022-10-27T23:11:23.924Z,87.58
2022-10-27T23:14:29.541Z,87.62
2022-10-27T23:17:35.311Z,88.72
2022-10-27T23:20:40.817Z,88.20
2022-10-27T23:23:49.359Z,88.89
2022-10-27T23:26:56.270Z,89.06
2022-10-27T23:30:01.944Z,89.00
2022-10-27T23:33:07.686Z,88.81
2022-10-27T23:36:15.000Z,88.05
2022-10-27T23:39:25.994Z,87.88
2022-10-27T23:42:31.589Z,87.95
2022-10-27T23:45:37.134Z,88.11
2022-10-27T23:48:42.788Z,87.67
2022-10-27T23:51:48.537Z,88.17
2022-10-27T23:54:56.777Z,87.83
2022-10-27T23:58:02.434Z,87.69
